Nearby METAR Reports

 

NZAA - Auckland Intl Ar, New Zealand
Distance from station: SW 18km
Updated: 16/04/2024 19:30
Partly cloudy
Partly cloudy
 Wind from WSW
Wind: WSW 15 km/h
Temperature: 16°C
Dew Point: 13°C
Humidity: 83%
Barometer: 1020 hPa
Clouds: Partly cloudy
Visibility: 10 km
Cloud details: Partly cloudy 823 m
2024/04/16 07:30 NZAA 160730Z AUTO 25008KT 9999 SCT027/// 16/13 Q1020
NZWP - Whenuapai (nz-Af, New Zealand
Distance from station: WNW 30km
Updated: 09/11/2022 11:00
NOT Current
Mostly cloudy
Mostly cloudy
 Wind from SSE
Wind: SSE 15 km/h
Temperature: 17°C
Dew Point: 14°C
Humidity: 83%
Barometer: 1012 hPa
Clouds: Mostly cloudy
Cloud details: Few Clouds 457 m
Partly cloudy 762 m
Mostly cloudy 1219 m
2022/11/08 22:00 NZWP 082200Z 16008KT 120V200 20KM FEW015 SCT025 BKN040 17/14 Q1012 NOSIG
 
NZWN - Wellington Intl, New Zealand
Distance from station: S 493km
Updated: 16/04/2024 19:30
Few Clouds
Few Clouds
 Wind from NNE
Wind: NNE 22 km/h
Temperature: 15°C
Dew Point: 12°C
Humidity: 82%
Barometer: 1014 hPa
Clouds: Few Clouds
Visibility: 10 km
Cloud details: Few Clouds 488 m
2024/04/16 07:30 NZWN 160730Z AUTO 03012KT 9999 FEW016/// 15/12 Q1014
NZCH - Christchurch Int, New Zealand
Distance from station: SSW 759km
Updated: 16/04/2024 19:30
Clear
Clear
 Wind from E
Wind: E 7 km/h
Temperature: 14°C
Dew Point: 11°C
Humidity: 82%
Barometer: 1011 hPa
Clouds: Clear
Visibility: 10 km
2024/04/16 07:30 NZCH 160730Z AUTO 10004KT 070V140 9999 NCD 14/11 Q1011
 
YSNF - Norfolk Island A, Australia
Distance from station: NW 1091km
Updated: 16/04/2024 19:30
Partly cloudy
Partly cloudy
 Wind from E
Wind: E 9 km/h
Temperature: 19°C
Dew Point: 13°C
Humidity: 68%
Barometer: 1024 hPa
Clouds: Partly cloudy
Visibility: 10 km
Cloud details: Partly cloudy 1067 m
2024/04/16 07:30 YSNF 160730Z AUTO 10005KT 9999 // SCT035 19/13 Q1024 RF00.0/000.0